Time;durP1;ratioP1;P1;durP2;ratioP2;P2;SDS_P1;SDS_P2;PMS_P1;PMS_P2;Temp;Humidity;BMP_temperature;BMP_pressure;BME280_temperature;BME280_humidity;BME280_pressure;Samples;Min_cycle;Max_cycle;Signal;HPM_P1;HPM_P2
2024/01/28 00:00:14;;;;;;;0.10;0.10;;;;;;;;;;5091757;28;20023;-76
2024/01/28 00:02:40;;;;;;;0.10;0.10;;;;;;;;;;5074184;28;20309;-73
2024/01/28 00:05:06;;;;;;;0.52;0.52;;;;;;;;;;5093713;28;20036;-75
2024/01/28 00:07:31;;;;;;;1.70;1.40;;;;;;;;;;5093449;28;20028;-74
2024/01/28 00:09:57;;;;;;;0.17;0.17;;;;;;;;;;5074366;28;20038;-78
2024/01/28 00:12:23;;;;;;;0.20;0.20;;;;;;;;;;5091771;28;20032;-73
2024/01/28 00:14:48;;;;;;;0.30;0.30;;;;;;;;;;5091791;28;20131;-74
2024/01/28 00:17:14;;;;;;;0.10;0.10;;;;;;;;;;5091523;28;20471;-74
2024/01/28 00:19:39;;;;;;;0.98;0.98;;;;;;;;;;5091165;28;20028;-75
2024/01/28 00:22:05;;;;;;;0.10;0.10;;;;;;;;;;5092350;28;20111;-74
2024/01/28 00:24:31;;;;;;;0.40;0.40;;;;;;;;;;5091369;28;20491;-74
2024/01/28 00:26:56;;;;;;;0.10;0.10;;;;;;;;;;5091445;28;20056;-74
2024/01/28 00:29:28;;;;;;;0.10;0.10;;;;;;;;;;5073336;28;20027;-76
2024/01/28 00:31:59;;;;;;;0.10;0.10;;;;;;;;;;5073382;28;20040;-75
2024/01/28 00:34:25;;;;;;;0.28;0.28;;;;;;;;;;5090961;28;20028;-74
2024/01/28 00:36:51;;;;;;;0.57;0.57;;;;;;;;;;5069936;28;20101;-73
2024/01/28 00:39:17;;;;;;;0.10;0.10;;;;;;;;;;5071340;28;20021;-75
2024/01/28 00:41:43;;;;;;;0.10;0.10;;;;;;;;;;5071686;28;20024;-76
2024/01/28 00:44:08;;;;;;;0.10;0.10;;;;;;;;;;5070977;28;20051;-75
2024/01/28 00:46:34;;;;;;;0.20;0.20;;;;;;;;;;5071244;28;20515;-75
2024/01/28 00:49:01;;;;;;;0.65;0.65;;;;;;;;;;5069688;28;20035;-75
2024/01/28 00:51:27;;;;;;;0.65;0.65;;;;;;;;;;5071048;28;20519;-75
2024/01/28 00:53:53;;;;;;;0.52;0.52;;;;;;;;;;5070962;28;20497;-76
2024/01/28 00:56:19;;;;;;;2.17;2.10;;;;;;;;;;5071036;28;20499;-74
2024/01/28 00:58:45;;;;;;;0.20;0.20;;;;;;;;;;5053078;28;20503;-74
2024/01/28 01:01:11;;;;;;;1.90;1.80;;;;;;;;;;5071067;28;20024;-73
2024/01/28 01:03:37;;;;;;;1.65;1.65;;;;;;;;;;5070326;28;20032;-75
2024/01/28 01:06:04;;;;;;;0.52;0.52;;;;;;;;;;5068863;28;20024;-75
2024/01/28 01:08:32;;;;;;;7.50;3.78;;;;;;;;;;5070359;28;20028;-75
2024/01/28 01:10:58;;;;;;;0.25;0.25;;;;;;;;;;5069434;28;20020;-75
2024/01/28 01:13:23;;;;;;;0.10;0.10;;;;;;;;;;5068942;28;20526;-77
2024/01/28 01:15:49;;;;;;;0.20;0.20;;;;;;;;;;5070400;28;20041;-75
2024/01/28 01:18:15;;;;;;;0.10;0.10;;;;;;;;;;5069941;28;20033;-75
2024/01/28 01:20:41;;;;;;;0.10;0.10;;;;;;;;;;5070129;28;20053;-77
2024/01/28 01:23:06;;;;;;;0.55;0.55;;;;;;;;;;5070595;28;20222;-74
2024/01/28 01:25:32;;;;;;;0.50;0.50;;;;;;;;;;5070207;28;20032;-76
2024/01/28 01:27:58;;;;;;;0.50;0.50;;;;;;;;;;5070421;28;20020;-75
2024/01/28 01:30:24;;;;;;;0.35;0.35;;;;;;;;;;5068751;28;20107;-74
2024/01/28 01:32:50;;;;;;;0.30;0.30;;;;;;;;;;5069999;28;20107;-73
2024/01/28 01:35:15;;;;;;;0.70;0.70;;;;;;;;;;5068738;28;20037;-75
2024/01/28 01:37:41;;;;;;;2.30;2.17;;;;;;;;;;5068657;28;20048;-75
2024/01/28 01:40:07;;;;;;;0.10;0.10;;;;;;;;;;5070159;28;20422;-72
2024/01/28 01:42:33;;;;;;;0.10;0.10;;;;;;;;;;5070371;28;20050;-74
2024/01/28 01:44:59;;;;;;;0.10;0.10;;;;;;;;;;5068451;28;20476;-75
2024/01/28 01:47:25;;;;;;;0.10;0.10;;;;;;;;;;5070177;28;20059;-73
2024/01/28 01:49:51;;;;;;;0.40;0.40;;;;;;;;;;5069707;28;20021;-74
2024/01/28 01:52:18;;;;;;;0.20;0.20;;;;;;;;;;5073150;28;20025;-74
2024/01/28 01:54:45;;;;;;;0.52;0.52;;;;;;;;;;5073927;28;20048;-74
2024/01/28 01:57:11;;;;;;;0.20;0.20;;;;;;;;;;5072447;28;20025;-73
2024/01/28 01:59:37;;;;;;;0.20;0.20;;;;;;;;;;5073580;28;20051;-75
2024/01/28 02:02:05;;;;;;;1.05;1.05;;;;;;;;;;5073446;28;20387;-75
2024/01/28 02:04:30;;;;;;;0.10;0.10;;;;;;;;;;5073397;28;20158;-74
2024/01/28 02:06:56;;;;;;;0.13;0.13;;;;;;;;;;5073444;28;20060;-74
2024/01/28 02:09:22;;;;;;;0.63;0.63;;;;;;;;;;5073417;28;20031;-73
2024/01/28 02:11:47;;;;;;;0.10;0.10;;;;;;;;;;5072237;28;20028;-73
2024/01/28 02:14:29;;;;;;;0.20;0.20;;;;;;;;;;5072295;28;20040;-74
2024/01/28 02:16:55;;;;;;;0.10;0.10;;;;;;;;;;5072299;28;20391;-74
2024/01/28 02:19:21;;;;;;;0.10;0.10;;;;;;;;;;5073611;28;20111;-73
2024/01/28 02:21:47;;;;;;;0.25;0.25;;;;;;;;;;5073474;28;20032;-73
2024/01/28 02:24:13;;;;;;;0.30;0.30;;;;;;;;;;5073493;28;20468;-74
2024/01/28 02:26:39;;;;;;;0.10;0.10;;;;;;;;;;5073264;28;20033;-74
2024/01/28 02:29:05;;;;;;;0.20;0.20;;;;;;;;;;5071951;28;20036;-75
2024/01/28 02:31:30;;;;;;;0.75;0.75;;;;;;;;;;5073462;28;20066;-75
2024/01/28 02:33:58;;;;;;;0.25;0.25;;;;;;;;;;5073044;28;20031;-74
2024/01/28 02:36:28;;;;;;;0.10;0.10;;;;;;;;;;5081810;28;20453;-74
2024/01/28 02:38:58;;;;;;;0.10;0.10;;;;;;;;;;5093404;28;20119;-74
2024/01/28 02:41:24;;;;;;;0.10;0.10;;;;;;;;;;5093513;28;20078;-73
2024/01/28 02:43:50;;;;;;;0.75;0.75;;;;;;;;;;5093319;28;20028;-74
2024/01/28 02:46:15;;;;;;;0.10;0.10;;;;;;;;;;5093189;28;20077;-74
2024/01/28 02:48:41;;;;;;;0.10;0.10;;;;;;;;;;5093468;28;20032;-74
2024/01/28 02:51:07;;;;;;;0.20;0.20;;;;;;;;;;5093159;28;20024;-74
2024/01/28 02:53:32;;;;;;;0.10;0.10;;;;;;;;;;5093388;28;20107;-73
2024/01/28 02:56:00;;;;;;;0.20;0.20;;;;;;;;;;5093138;28;20058;-74
2024/01/28 02:58:26;;;;;;;0.73;0.73;;;;;;;;;;5096264;28;20487;-74
2024/01/28 03:00:52;;;;;;;0.63;0.63;;;;;;;;;;5096777;28;20101;-74
2024/01/28 03:03:18;;;;;;;0.68;0.68;;;;;;;;;;5097189;28;20024;-74
2024/01/28 03:05:43;;;;;;;0.50;0.50;;;;;;;;;;5096981;28;20020;-74
2024/01/28 03:08:09;;;;;;;1.95;1.85;;;;;;;;;;5096985;28;20032;-74
2024/01/28 03:10:35;;;;;;;1.67;1.00;;;;;;;;;;5096860;28;20042;-75
2024/01/28 03:13:00;;;;;;;0.10;0.10;;;;;;;;;;5097115;28;20150;-76
2024/01/28 03:15:26;;;;;;;0.10;0.10;;;;;;;;;;5096607;28;20074;-74
2024/01/28 03:17:51;;;;;;;0.10;0.10;;;;;;;;;;5096914;28;20048;-74
2024/01/28 03:20:18;;;;;;;0.10;0.10;;;;;;;;;;5096683;28;20031;-75
2024/01/28 03:22:43;;;;;;;0.13;0.13;;;;;;;;;;5096623;28;20134;-74
2024/01/28 03:25:09;;;;;;;0.10;0.10;;;;;;;;;;5078337;28;20479;-75
2024/01/28 03:27:35;;;;;;;2.72;2.58;;;;;;;;;;5096543;28;20028;-75
2024/01/28 03:30:04;;;;;;;0.10;0.10;;;;;;;;;;5096286;28;20518;-74
2024/01/28 03:32:30;;;;;;;0.10;0.10;;;;;;;;;;5096534;28;20035;-74
2024/01/28 03:34:56;;;;;;;0.10;0.10;;;;;;;;;;5096267;28;20414;-74
2024/01/28 03:37:21;;;;;;;0.10;0.10;;;;;;;;;;5096320;28;20079;-74
2024/01/28 03:39:47;;;;;;;0.10;0.10;;;;;;;;;;5096273;28;20032;-75
2024/01/28 03:42:12;;;;;;;0.10;0.10;;;;;;;;;;5096202;28;20483;-74
2024/01/28 03:44:38;;;;;;;0.10;0.10;;;;;;;;;;5096170;28;20375;-74
2024/01/28 03:47:03;;;;;;;0.10;0.10;;;;;;;;;;5096127;28;20028;-74
2024/01/28 03:49:29;;;;;;;10.98;4.47;;;;;;;;;;5096108;28;20024;-73
2024/01/28 03:51:55;;;;;;;1.13;1.13;;;;;;;;;;5095999;28;20031;-74
2024/01/28 03:54:20;;;;;;;0.35;0.35;;;;;;;;;;5096098;28;20054;-74
2024/01/28 03:56:46;;;;;;;0.47;0.47;;;;;;;;;;5095934;28;20387;-74
2024/01/28 03:59:13;;;;;;;1.08;1.08;;;;;;;;;;5077857;28;20524;-74
2024/01/28 04:01:39;;;;;;;0.13;0.13;;;;;;;;;;5095849;28;20020;-74
2024/01/28 04:04:05;;;;;;;5.35;5.00;;;;;;;;;;5081316;28;20029;-75
2024/01/28 04:06:31;;;;;;;1.65;1.55;;;;;;;;;;5071758;28;20071;-74
2024/01/28 04:08:56;;;;;;;1.65;1.55;;;;;;;;;;5071508;28;20055;-74
2024/01/28 04:11:25;;;;;;;2.20;2.10;;;;;;;;;;5071928;28;20016;-75
2024/01/28 04:13:51;;;;;;;0.20;0.20;;;;;;;;;;5071849;28;20041;-74
2024/01/28 04:16:17;;;;;;;4.18;1.83;;;;;;;;;;5071370;28;20024;-74
2024/01/28 04:18:43;;;;;;;1.23;1.23;;;;;;;;;;5071363;28;20029;-73
2024/01/28 04:21:09;;;;;;;2.45;2.35;;;;;;;;;;5071666;28;20064;-73
2024/01/28 04:23:34;;;;;;;0.10;0.10;;;;;;;;;;5071517;28;20033;-71
2024/01/28 04:26:00;;;;;;;0.30;0.30;;;;;;;;;;5071484;28;20033;-77
2024/01/28 04:28:26;;;;;;;0.10;0.10;;;;;;;;;;5071007;28;20037;-74
2024/01/28 04:30:51;;;;;;;0.30;0.30;;;;;;;;;;5071339;28;20067;-74
2024/01/28 04:33:17;;;;;;;0.43;0.43;;;;;;;;;;5071240;28;20388;-75
2024/01/28 04:35:43;;;;;;;0.17;0.17;;;;;;;;;;5070749;28;20506;-75
2024/01/28 04:38:08;;;;;;;3.20;3.00;;;;;;;;;;5071029;28;20024;-74
2024/01/28 04:40:34;;;;;;;1.50;1.17;;;;;;;;;;5070841;28;20044;-74
2024/01/28 04:42:59;;;;;;;0.20;0.20;;;;;;;;;;5053305;28;20025;-74
2024/01/28 04:45:25;;;;;;;0.10;0.10;;;;;;;;;;5071011;28;20058;-74
2024/01/28 04:47:51;;;;;;;0.10;0.10;;;;;;;;;;5053162;28;20052;-73
2024/01/28 04:50:16;;;;;;;0.10;0.10;;;;;;;;;;5070498;28;20078;-73
2024/01/28 04:52:42;;;;;;;0.10;0.10;;;;;;;;;;5071126;28;20027;-73
2024/01/28 04:55:09;;;;;;;0.10;0.10;;;;;;;;;;5070768;28;20082;-72
2024/01/28 04:57:35;;;;;;;0.20;0.20;;;;;;;;;;5070564;28;20365;-72
2024/01/28 05:00:00;;;;;;;0.10;0.10;;;;;;;;;;5070925;28;20035;-77
2024/01/28 05:02:26;;;;;;;0.10;0.10;;;;;;;;;;5052855;28;20078;-72
2024/01/28 05:04:51;;;;;;;0.10;0.10;;;;;;;;;;5070933;28;20036;-73
2024/01/28 05:07:17;;;;;;;0.45;0.45;;;;;;;;;;5070624;28;20107;-73
2024/01/28 05:09:43;;;;;;;0.10;0.10;;;;;;;;;;5070332;28;20115;-74
2024/01/28 05:12:09;;;;;;;0.10;0.10;;;;;;;;;;5070400;28;20021;-75
2024/01/28 05:14:34;;;;;;;0.10;0.10;;;;;;;;;;5070231;28;20044;-73
2024/01/28 05:17:01;;;;;;;0.10;0.10;;;;;;;;;;5070457;28;20059;-73
2024/01/28 05:19:26;;;;;;;0.10;0.10;;;;;;;;;;5069762;28;20024;-72
2024/01/28 05:21:52;;;;;;;0.10;0.10;;;;;;;;;;5070146;28;20028;-72
2024/01/28 05:24:18;;;;;;;0.10;0.10;;;;;;;;;;5070045;28;20016;-72
2024/01/28 05:26:43;;;;;;;1.50;1.30;;;;;;;;;;5070116;28;20032;-73
2024/01/28 05:29:09;;;;;;;1.52;1.15;;;;;;;;;;5070130;28;20495;-73
2024/01/28 05:31:35;;;;;;;2.17;2.08;;;;;;;;;;5070044;28;20028;-73
2024/01/28 05:34:01;;;;;;;0.10;0.10;;;;;;;;;;5069946;28;20158;-73
2024/01/28 05:36:27;;;;;;;0.10;0.10;;;;;;;;;;5069545;28;20042;-74
2024/01/28 05:38:54;;;;;;;0.10;0.10;;;;;;;;;;5069896;28;20016;-73
2024/01/28 05:41:20;;;;;;;0.10;0.10;;;;;;;;;;5052459;28;20036;-72
2024/01/28 05:43:46;;;;;;;0.10;0.10;;;;;;;;;;5069780;28;20372;-72
2024/01/28 05:46:11;;;;;;;0.20;0.20;;;;;;;;;;5069791;28;20044;-74
2024/01/28 05:48:37;;;;;;;0.10;0.10;;;;;;;;;;5069894;28;20095;-74
2024/01/28 05:51:03;;;;;;;0.10;0.10;;;;;;;;;;5070209;28;20112;-71
2024/01/28 05:53:28;;;;;;;0.20;0.20;;;;;;;;;;5069684;28;20103;-73
2024/01/28 05:55:54;;;;;;;0.10;0.10;;;;;;;;;;5069777;28;20135;-72
2024/01/28 05:58:20;;;;;;;0.20;0.20;;;;;;;;;;5051789;28;20476;-72
2024/01/28 06:00:46;;;;;;;2.25;2.15;;;;;;;;;;5053085;28;20470;-73
2024/01/28 06:03:12;;;;;;;0.20;0.20;;;;;;;;;;5054286;28;20035;-75
2024/01/28 06:05:37;;;;;;;0.10;0.10;;;;;;;;;;5089596;28;20036;-74
2024/01/28 06:08:03;;;;;;;0.10;0.10;;;;;;;;;;5089600;28;20086;-74
2024/01/28 06:10:29;;;;;;;0.10;0.10;;;;;;;;;;5082577;28;20111;-75
2024/01/28 06:12:54;;;;;;;0.10;0.10;;;;;;;;;;5088086;28;20032;-74
2024/01/28 06:15:20;;;;;;;0.75;0.75;;;;;;;;;;5089140;28;20036;-75
2024/01/28 06:17:45;;;;;;;0.20;0.20;;;;;;;;;;5089538;28;20028;-74
2024/01/28 06:20:12;;;;;;;0.10;0.10;;;;;;;;;;5089078;28;20456;-76
2024/01/28 06:22:37;;;;;;;0.20;0.20;;;;;;;;;;5070560;28;20023;-73
2024/01/28 06:25:03;;;;;;;0.10;0.10;;;;;;;;;;5089242;28;20399;-73
2024/01/28 06:27:29;;;;;;;0.20;0.20;;;;;;;;;;5089385;28;20475;-74
2024/01/28 06:29:55;;;;;;;0.68;0.68;;;;;;;;;;5071203;28;20531;-73
2024/01/28 06:32:21;;;;;;;1.08;0.95;;;;;;;;;;5090475;28;20057;-77
2024/01/28 06:34:47;;;;;;;0.73;0.73;;;;;;;;;;5093716;28;20098;-78
2024/01/28 06:37:13;;;;;;;0.10;0.10;;;;;;;;;;5093151;28;20089;-73
2024/01/28 06:39:39;;;;;;;0.10;0.10;;;;;;;;;;5093580;28;20475;-74
2024/01/28 06:42:04;;;;;;;0.68;0.68;;;;;;;;;;5093501;28;20031;-74
2024/01/28 06:44:31;;;;;;;0.20;0.20;;;;;;;;;;5093464;28;20352;-74
2024/01/28 06:46:57;;;;;;;0.20;0.20;;;;;;;;;;5093511;28;20032;-74
2024/01/28 06:49:22;;;;;;;0.30;0.30;;;;;;;;;;5092588;28;20020;-74
2024/01/28 06:51:48;;;;;;;0.13;0.13;;;;;;;;;;5091013;28;20422;-74
2024/01/28 06:54:13;;;;;;;0.10;0.10;;;;;;;;;;5090894;28;20083;-74
2024/01/28 06:56:39;;;;;;;0.20;0.20;;;;;;;;;;5091700;28;20484;-74
2024/01/28 06:59:06;;;;;;;0.20;0.20;;;;;;;;;;5091615;28;20411;-74
2024/01/28 07:01:31;;;;;;;0.10;0.10;;;;;;;;;;5073350;28;20024;-77
2024/01/28 07:03:57;;;;;;;0.10;0.10;;;;;;;;;;5092281;28;20027;-76
2024/01/28 07:06:22;;;;;;;0.10;0.10;;;;;;;;;;5092037;28;20024;-75
2024/01/28 07:08:48;;;;;;;0.10;0.10;;;;;;;;;;5092625;28;20056;-74
2024/01/28 07:11:13;;;;;;;0.15;0.15;;;;;;;;;;5091588;28;20027;-76
2024/01/28 07:13:40;;;;;;;0.17;0.17;;;;;;;;;;5075150;28;20078;-75
2024/01/28 07:16:06;;;;;;;0.10;0.10;;;;;;;;;;5092917;28;20040;-76
2024/01/28 07:18:32;;;;;;;0.20;0.20;;;;;;;;;;5092508;28;20036;-76
2024/01/28 07:20:57;;;;;;;0.10;0.10;;;;;;;;;;5091411;28;20074;-75
2024/01/28 07:23:23;;;;;;;2.30;1.08;;;;;;;;;;5092645;28;20030;-76
2024/01/28 07:25:48;;;;;;;0.10;0.10;;;;;;;;;;5092402;28;20484;-75
2024/01/28 07:28:14;;;;;;;0.10;0.10;;;;;;;;;;5092607;28;20059;-74
2024/01/28 07:30:39;;;;;;;0.10;0.10;;;;;;;;;;5091787;28;20073;-75
2024/01/28 07:33:07;;;;;;;0.13;0.13;;;;;;;;;;5090136;28;20085;-75
2024/01/28 07:35:34;;;;;;;0.20;0.20;;;;;;;;;;5092098;28;20105;-73
2024/01/28 07:37:59;;;;;;;0.10;0.10;;;;;;;;;;5084547;28;20024;-73
2024/01/28 07:40:25;;;;;;;0.10;0.10;;;;;;;;;;5074871;28;20029;-74
2024/01/28 07:42:51;;;;;;;0.10;0.10;;;;;;;;;;5070314;28;20029;-74
2024/01/28 07:45:16;;;;;;;0.20;0.20;;;;;;;;;;5070895;28;20117;-72
2024/01/28 07:47:42;;;;;;;0.10;0.10;;;;;;;;;;5089988;28;20489;-73
2024/01/28 07:50:07;;;;;;;0.20;0.20;;;;;;;;;;5090017;28;20482;-74
2024/01/28 07:52:33;;;;;;;0.10;0.10;;;;;;;;;;5090695;28;20035;-73
2024/01/28 07:54:59;;;;;;;0.10;0.10;;;;;;;;;;5090569;28;20361;-74
2024/01/28 07:57:24;;;;;;;0.10;0.10;;;;;;;;;;5090392;28;20059;-73
2024/01/28 07:59:50;;;;;;;0.20;0.20;;;;;;;;;;5090747;28;20359;-72
2024/01/28 08:02:15;;;;;;;0.10;0.10;;;;;;;;;;5072493;28;20540;-73
2024/01/28 08:04:44;;;;;;;7.25;6.93;;;;;;;;;;5090659;28;20407;-75
2024/01/28 08:07:10;;;;;;;0.20;0.20;;;;;;;;;;5072849;28;20024;-73
2024/01/28 08:09:36;;;;;;;0.10;0.10;;;;;;;;;;5090795;28;20031;-73
2024/01/28 08:12:03;;;;;;;0.20;0.20;;;;;;;;;;5090667;28;20036;-76
2024/01/28 08:14:29;;;;;;;0.47;0.47;;;;;;;;;;5072727;28;20024;-75
2024/01/28 08:16:55;;;;;;;0.10;0.10;;;;;;;;;;5091238;28;20028;-73
2024/01/28 08:19:21;;;;;;;0.10;0.10;;;;;;;;;;5090295;28;20108;-74
2024/01/28 08:21:47;;;;;;;0.10;0.10;;;;;;;;;;5071952;28;20024;-72
2024/01/28 08:24:13;;;;;;;0.50;0.50;;;;;;;;;;5089638;28;20031;-71
2024/01/28 08:26:38;;;;;;;0.50;0.50;;;;;;;;;;5090008;28;20422;-74
2024/01/28 08:29:04;;;;;;;0.10;0.10;;;;;;;;;;5089874;28;20036;-73
2024/01/28 08:31:30;;;;;;;4.28;4.03;;;;;;;;;;5089737;28;20444;-74
2024/01/28 08:33:55;;;;;;;0.20;0.20;;;;;;;;;;5089757;28;20032;-72
2024/01/28 08:38:01;;;;;;;0.10;0.10;;;;;;;;;;5086128;27;20457;-75
2024/01/28 08:40:27;;;;;;;0.10;0.10;;;;;;;;;;5082524;28;20032;-74
2024/01/28 08:42:53;;;;;;;0.20;0.20;;;;;;;;;;5087051;28;20024;-73
2024/01/28 08:45:20;;;;;;;0.17;0.17;;;;;;;;;;5086439;28;20024;-71
2024/01/28 08:47:47;;;;;;;0.17;0.17;;;;;;;;;;5065900;28;20463;-74
2024/01/28 08:50:13;;;;;;;0.10;0.10;;;;;;;;;;5085040;28;20043;-73
2024/01/28 08:52:39;;;;;;;0.20;0.20;;;;;;;;;;5085170;28;20023;-76
2024/01/28 08:55:05;;;;;;;0.10;0.10;;;;;;;;;;5086317;28;20359;-73
2024/01/28 08:57:32;;;;;;;0.20;0.20;;;;;;;;;;5086230;28;20081;-73
2024/01/28 08:59:57;;;;;;;0.20;0.20;;;;;;;;;;5086454;28;20035;-74
2024/01/28 09:02:23;;;;;;;0.10;0.10;;;;;;;;;;5085641;28;20016;-73
2024/01/28 09:04:48;;;;;;;0.10;0.10;;;;;;;;;;5086192;28;20056;-73
2024/01/28 09:07:14;;;;;;;0.10;0.10;;;;;;;;;;5085817;28;20031;-75
2024/01/28 09:09:40;;;;;;;0.10;0.10;;;;;;;;;;5086336;28;20020;-74
2024/01/28 09:12:06;;;;;;;0.10;0.10;;;;;;;;;;5086261;28;20467;-74
2024/01/28 09:14:31;;;;;;;0.10;0.10;;;;;;;;;;5085599;28;20043;-77
2024/01/28 09:16:58;;;;;;;1.02;0.93;;;;;;;;;;5085817;28;20024;-73
2024/01/28 09:19:23;;;;;;;0.25;0.25;;;;;;;;;;5085763;28;20028;-79
2024/01/28 09:21:49;;;;;;;0.57;0.52;;;;;;;;;;5085471;28;20180;-73
2024/01/28 09:24:15;;;;;;;0.20;0.20;;;;;;;;;;5085845;28;20100;-75
2024/01/28 09:26:40;;;;;;;0.35;0.35;;;;;;;;;;5086463;28;20112;-75
2024/01/28 09:29:06;;;;;;;0.15;0.15;;;;;;;;;;5086086;28;20374;-73
2024/01/28 09:31:32;;;;;;;0.10;0.10;;;;;;;;;;5086512;28;20020;-73
2024/01/28 09:33:57;;;;;;;0.43;0.43;;;;;;;;;;5085139;28;20016;-73
2024/01/28 09:36:23;;;;;;;1.58;1.33;;;;;;;;;;5085530;28;20044;-72
2024/01/28 09:38:49;;;;;;;0.20;0.20;;;;;;;;;;5086084;28;20388;-72
2024/01/28 09:41:14;;;;;;;0.28;0.28;;;;;;;;;;5086376;28;20032;-73
2024/01/28 09:43:41;;;;;;;0.50;0.30;;;;;;;;;;5086102;28;20024;-76
2024/01/28 09:46:07;;;;;;;0.77;0.52;;;;;;;;;;5086030;28;20031;-71
2024/01/28 09:48:34;;;;;;;0.13;0.13;;;;;;;;;;5076854;28;20028;-74
2024/01/28 09:50:59;;;;;;;0.52;0.50;;;;;;;;;;5072287;28;20027;-73
2024/01/28 09:53:25;;;;;;;0.20;0.20;;;;;;;;;;5067331;28;20012;-73
2024/01/28 09:55:52;;;;;;;0.10;0.10;;;;;;;;;;5060787;28;20017;-76
2024/01/28 09:58:18;;;;;;;1.65;0.73;;;;;;;;;;5050711;28;20024;-74
2024/01/28 10:00:44;;;;;;;0.80;0.80;;;;;;;;;;5052185;28;20017;-73
2024/01/28 10:03:09;;;;;;;1.13;0.75;;;;;;;;;;5050995;28;20059;-76
2024/01/28 10:05:35;;;;;;;0.65;0.50;;;;;;;;;;5057261;28;20032;-76
2024/01/28 10:08:02;;;;;;;3.25;3.00;;;;;;;;;;5051953;28;20028;-73
2024/01/28 10:10:28;;;;;;;1.38;0.93;;;;;;;;;;5051890;28;20025;-74
2024/01/28 10:12:53;;;;;;;3.25;1.10;;;;;;;;;;5052167;28;20035;-72
2024/01/28 10:15:23;;;;;;;0.40;0.28;;;;;;;;;;5052055;28;20032;-71
2024/01/28 10:17:48;;;;;;;;;;;;;;;;;;5052566;28;20036;-72
2024/01/28 10:20:15;;;;;;;0.40;0.40;;;;;;;;;;5051338;28;20276;-71
2024/01/28 10:22:41;;;;;;;1.15;0.95;;;;;;;;;;5051648;28;20024;-72
2024/01/28 10:25:07;;;;;;;0.50;0.30;;;;;;;;;;5050491;28;20025;-73
2024/01/28 10:27:32;;;;;;;2.05;1.40;;;;;;;;;;5051943;28;20090;-75
2024/01/28 10:29:58;;;;;;;0.50;0.50;;;;;;;;;;5051267;28;20103;-72
2024/01/28 10:32:24;;;;;;;0.20;0.20;;;;;;;;;;5050746;28;20032;-72
2024/01/28 10:34:50;;;;;;;1.60;1.20;;;;;;;;;;5051937;28;20464;-75
2024/01/28 10:37:16;;;;;;;0.30;0.30;;;;;;;;;;5064761;28;20054;-75
2024/01/28 10:39:44;;;;;;;2.17;2.08;;;;;;;;;;5075635;28;20024;-74
2024/01/28 10:42:12;;;;;;;5.10;1.13;;;;;;;;;;5065198;28;20029;-76
2024/01/28 10:44:40;;;;;;;0.65;0.65;;;;;;;;;;5069328;28;20416;-70
2024/01/28 10:47:08;;;;;;;0.65;0.65;;;;;;;;;;5077644;28;20031;-78
2024/01/28 10:49:36;;;;;;;0.70;0.47;;;;;;;;;;5050459;28;20416;-75
2024/01/28 10:52:02;;;;;;;3.58;1.45;;;;;;;;;;5032099;28;20028;-73
2024/01/28 10:54:28;;;;;;;0.40;0.40;;;;;;;;;;5049776;28;20052;-71
2024/01/28 10:56:54;;;;;;;1.85;0.63;;;;;;;;;;5050205;28;20118;-72
2024/01/28 10:59:20;;;;;;;0.63;0.63;;;;;;;;;;5049389;28;20052;-72
2024/01/28 11:01:46;;;;;;;3.45;0.80;;;;;;;;;;5051026;28;20017;-72
2024/01/28 11:04:11;;;;;;;0.68;0.63;;;;;;;;;;5049598;28;20346;-73
2024/01/28 11:06:37;;;;;;;0.70;0.70;;;;;;;;;;5051320;28;20039;-73
2024/01/28 11:09:03;;;;;;;0.95;0.75;;;;;;;;;;5051150;28;20082;-72
2024/01/28 11:11:30;;;;;;;2.72;0.75;;;;;;;;;;5051411;28;20021;-72
2024/01/28 11:13:59;;;;;;;3.20;1.58;;;;;;;;;;5051429;28;20032;-72
2024/01/28 11:16:28;;;;;;;0.45;0.45;;;;;;;;;;5050924;28;20033;-72
2024/01/28 11:19:06;;;;;;;2.35;0.93;;;;;;;;;;5051008;28;20029;-73
2024/01/28 11:21:33;;;;;;;0.30;0.30;;;;;;;;;;5050126;28;20480;-73
2024/01/28 11:23:59;;;;;;;0.52;0.52;;;;;;;;;;5049609;28;20028;-72
2024/01/28 11:26:27;;;;;;;0.15;0.15;;;;;;;;;;5050375;28;20017;-72
2024/01/28 11:28:54;;;;;;;6.72;2.28;;;;;;;;;;5049558;28;20128;-71
2024/01/28 11:31:30;;;;;;;1.48;0.70;;;;;;;;;;5047573;28;20047;-72
2024/01/28 11:34:06;;;;;;;2.25;1.52;;;;;;;;;;5049300;28;20033;-76
2024/01/28 11:36:35;;;;;;;0.57;0.57;;;;;;;;;;5049926;28;20387;-76
2024/01/28 11:39:07;;;;;;;2.83;0.73;;;;;;;;;;5049218;28;20021;-71
2024/01/28 11:41:40;;;;;;;1.50;1.05;;;;;;;;;;5050367;28;20033;-73
2024/01/28 11:44:09;;;;;;;1.42;1.08;;;;;;;;;;5049710;28;20107;-72
2024/01/28 11:46:38;;;;;;;0.30;0.30;;;;;;;;;;5065618;28;20103;-71
2024/01/28 11:49:05;;;;;;;2.65;1.20;;;;;;;;;;5053877;28;20029;-74
2024/01/28 11:51:32;;;;;;;0.98;0.80;;;;;;;;;;5050108;28;20021;-71
2024/01/28 11:54:03;;;;;;;0.57;0.57;;;;;;;;;;5048002;28;20559;-75
2024/01/28 11:56:32;;;;;;;0.45;0.40;;;;;;;;;;5048170;28;20064;-71
2024/01/28 11:58:59;;;;;;;0.30;0.28;;;;;;;;;;5048759;28;20365;-77
2024/01/28 12:01:25;;;;;;;1.67;1.58;;;;;;;;;;5048495;28;20029;-72
2024/01/28 12:03:54;;;;;;;0.85;0.85;;;;;;;;;;5048667;28;20056;-73
2024/01/28 12:06:23;;;;;;;0.50;0.50;;;;;;;;;;5043214;28;20459;-72
2024/01/28 12:08:49;;;;;;;0.50;0.35;;;;;;;;;;5047532;28;20064;-74
2024/01/28 12:11:16;;;;;;;2.75;1.40;;;;;;;;;;5048007;28;20028;-73
2024/01/28 12:13:43;;;;;;;5.18;1.20;;;;;;;;;;5048939;28;20040;-73
2024/01/28 12:16:10;;;;;;;0.50;0.50;;;;;;;;;;5049481;28;20037;-72
2024/01/28 12:18:41;;;;;;;2.33;1.45;;;;;;;;;;5047790;28;20080;-69
2024/01/28 12:21:23;;;;;;;3.50;1.48;;;;;;;;;;5048344;28;20016;-69
2024/01/28 12:23:53;;;;;;;1.20;0.88;;;;;;;;;;5052395;28;20028;-74
2024/01/28 12:26:19;;;;;;;2.88;1.25;;;;;;;;;;5057711;28;20017;-78
2024/01/28 12:28:46;;;;;;;7.68;2.05;;;;;;;;;;5047535;28;20020;-78
2024/01/28 12:31:12;;;;;;;1.60;1.05;;;;;;;;;;5048764;28;20025;-75
2024/01/28 12:33:37;;;;;;;0.65;0.65;;;;;;;;;;5047837;28;20115;-77
2024/01/28 12:36:03;;;;;;;1.55;1.05;;;;;;;;;;5049775;28;20432;-75
2024/01/28 12:38:29;;;;;;;4.93;2.47;;;;;;;;;;5047536;28;20021;-73
2024/01/28 12:40:54;;;;;;;0.47;0.47;;;;;;;;;;5048820;28;20033;-75
2024/01/28 12:43:20;;;;;;;0.70;0.60;;;;;;;;;;5048993;28;20036;-74
2024/01/28 12:45:45;;;;;;;1.48;0.90;;;;;;;;;;5046118;28;20640;-74
2024/01/28 12:48:11;;;;;;;0.40;0.40;;;;;;;;;;5047242;28;20473;-73
2024/01/28 12:50:37;;;;;;;1.95;1.13;;;;;;;;;;5048912;28;20032;-75
2024/01/28 12:53:02;;;;;;;2.63;1.27;;;;;;;;;;5053348;28;20026;-75
2024/01/28 12:55:28;;;;;;;0.95;0.77;;;;;;;;;;5049579;28;20016;-75
2024/01/28 12:57:54;;;;;;;1.88;1.08;;;;;;;;;;5057304;28;20466;-73
2024/01/28 13:00:20;;;;;;;2.38;1.60;;;;;;;;;;5049145;28;20063;-73
2024/01/28 13:02:46;;;;;;;1.60;1.17;;;;;;;;;;5067887;28;20050;-74
2024/01/28 13:05:12;;;;;;;1.58;1.33;;;;;;;;;;5063548;28;20046;-73
2024/01/28 13:07:39;;;;;;;3.20;1.92;;;;;;;;;;5057264;28;20107;-75
2024/01/28 13:10:05;;;;;;;0.82;0.70;;;;;;;;;;5057281;28;20025;-75
2024/01/28 13:12:33;;;;;;;1.92;1.20;;;;;;;;;;5060232;28;20032;-75
2024/01/28 13:14:59;;;;;;;2.03;1.43;;;;;;;;;;5052502;28;20292;-74
2024/01/28 13:17:27;;;;;;;1.42;1.23;;;;;;;;;;5056209;28;20036;-74
2024/01/28 13:19:53;;;;;;;0.32;0.32;;;;;;;;;;5051762;28;20025;-75
2024/01/28 13:22:19;;;;;;;0.30;0.30;;;;;;;;;;5051618;28;20300;-74
2024/01/28 13:24:46;;;;;;;0.98;0.70;;;;;;;;;;5064223;28;20013;-74
2024/01/28 13:27:11;;;;;;;0.80;0.80;;;;;;;;;;5063113;28;20037;-73
2024/01/28 13:29:39;;;;;;;1.35;0.93;;;;;;;;;;5061730;28;20020;-74
2024/01/28 13:32:06;;;;;;;1.13;0.85;;;;;;;;;;5062862;28;20044;-74
2024/01/28 13:34:34;;;;;;;2.72;1.60;;;;;;;;;;5060341;28;20016;-75
2024/01/28 13:37:00;;;;;;;4.00;2.17;;;;;;;;;;5061071;28;20044;-73
2024/01/28 13:39:26;;;;;;;1.38;1.27;;;;;;;;;;5056513;28;20021;-75
2024/01/28 13:41:52;;;;;;;3.97;1.10;;;;;;;;;;5058991;28;20078;-75
2024/01/28 13:44:18;;;;;;;1.98;1.30;;;;;;;;;;5052876;28;20059;-74
2024/01/28 13:46:43;;;;;;;1.08;0.68;;;;;;;;;;5060765;28;20060;-72
2024/01/28 13:49:09;;;;;;;0.55;0.47;;;;;;;;;;5062352;28;20921;-75
2024/01/28 13:51:34;;;;;;;0.52;0.43;;;;;;;;;;5062476;28;20013;-74
2024/01/28 13:54:00;;;;;;;0.63;0.63;;;;;;;;;;5060678;28;20508;-74
2024/01/28 13:56:26;;;;;;;0.32;0.32;;;;;;;;;;5062208;28;20112;-74
2024/01/28 13:58:52;;;;;;;4.00;1.42;;;;;;;;;;5058088;28;20021;-74
2024/01/28 14:01:18;;;;;;;1.33;0.93;;;;;;;;;;5062020;28;20107;-73
2024/01/28 14:03:44;;;;;;;0.70;0.65;;;;;;;;;;5062300;28;20088;-74
2024/01/28 14:06:10;;;;;;;0.17;0.17;;;;;;;;;;5060497;28;20037;-75
2024/01/28 14:08:36;;;;;;;0.85;0.65;;;;;;;;;;5062222;28;20012;-74
2024/01/28 14:11:02;;;;;;;1.55;0.93;;;;;;;;;;5061385;28;20029;-73
2024/01/28 14:13:27;;;;;;;1.52;0.60;;;;;;;;;;5060607;28;20023;-75
2024/01/28 14:15:53;;;;;;;2.40;1.05;;;;;;;;;;5061266;28;20031;-76
2024/01/28 14:18:18;;;;;;;1.23;1.13;;;;;;;;;;5060753;28;20017;-73
2024/01/28 14:20:44;;;;;;;0.30;0.30;;;;;;;;;;5061082;28;20012;-73
2024/01/28 14:23:09;;;;;;;1.17;1.00;;;;;;;;;;5060934;28;20032;-74
2024/01/28 14:25:35;;;;;;;1.08;0.52;;;;;;;;;;5058834;28;20016;-73
2024/01/28 14:28:03;;;;;;;0.63;0.52;;;;;;;;;;5061969;28;20021;-75
2024/01/28 14:30:29;;;;;;;2.67;1.38;;;;;;;;;;5057201;28;20169;-74
2024/01/28 14:32:55;;;;;;;2.95;1.25;;;;;;;;;;5058281;28;20452;-74
2024/01/28 14:35:20;;;;;;;0.50;0.50;;;;;;;;;;5060210;28;20464;-73
2024/01/28 14:37:49;;;;;;;0.60;0.60;;;;;;;;;;5056557;28;20166;-74